CYQT

Thunder Bay Airport

Thunder Bay, , Canada
TAF AMD CYQT 171441Z 1714/1802 07010KT P6SM SCT020 OVC200 TEMPO 1714/1719 6SM FU BKN020 FM172000 09006KT P6SM SCT050 TEMPO 1720/1802 BKN050 RMK NXT FCST BY 172000Z
Issued Valid From Valid To
Aug-17 @ 14:41 UTC
(14 minutes ago)
Aug-17 @ 14:00 UTC
(55 minutes ago)
Aug-18 @ 02:00 UTC
(in 11 hours)
Aug-17 @ 14:00 to Aug-17 @ 20:00
TAF AMD CYQT 171441Z 1714/1802 07010KT P6SM SCT020 OVC200
Wind Visibility Clouds
70° at 10 knots Greater than 6 miles
  • Scattered at 2,000' AGL
  • Overcast at 20,000' AGL
Temporary Aug-17 @ 14:00 to Aug-17 @ 19:00
TEMPO 1714/1719 6SM FU BKN020
Visibility Clouds Conditions
6 miles
  • Broken at 2,000' AGL
  • Smoke
Temporary Aug-17 @ 20:00 to Aug-18 @ 02:00
TEMPO 1720/1802 BKN050 RMK NXT FCST BY 172000Z
Clouds
  • Broken at 5,000' AGL
From Aug-17 @ 20:00 to Aug-18 @ 02:00
FM172000 09006KT P6SM SCT050
Wind Visibility Clouds
90° at 6 knots Greater than 6 miles
  • Scattered at 5,000' AGL
TAF AMD CYQT 171441Z 1714/1802 07010KT P6SM SCT020 OVC200 TEMPO 1714/1719 6SM FU BKN020 FM172000 09006KT P6SM SCT050 TEMPO 1720/1802 BKN050 RMK NXT FCST BY 172000Z
Issued Aug-17 @ 14:41 UTC
(14 minutes ago)
Valid From Aug-17 @ 14:00 UTC
(55 minutes ago)
Valid To Aug-18 @ 02:00 UTC
(in 11 hours)
Aug-17 @ 14:00 - Aug-17 @ 20:00
Wind Visibility
70° at 10 knots Greater than 6 miles
Clouds
  • Scattered at 2,000' AGL
  • Overcast at 20,000' AGL
Temporary Aug-17 @ 14:00 - Aug-17 @ 19:00
Clouds
  • Broken at 2,000' AGL
Conditions
  • Smoke
Temporary Aug-17 @ 20:00 - Aug-18 @ 02:00
Clouds
  • Broken at 5,000' AGL
From Aug-17 @ 20:00 - Aug-18 @ 02:00
Wind Visibility
90° at 6 knots Greater than 6 miles
Clouds
  • Scattered at 5,000' AGL